NCAR-RAP Real-Time Weather Data

Output produced by METARs form (12 May 2021  11:29 UTC)
found at http://weather.rap.ucar.edu/surface/
 
KSNT 121051Z AUTO 00000KT M04/M07 A3024 RMK AO1 SLP205 T10441072
KSNT 120951Z AUTO 00000KT M04/M07 A3024 RMK AO1 SLP205 T10441072
KSNT 120851Z AUTO 17004KT M03/M07 A3023 RMK AO1 SLP198 T10331067 51007
KSNT 120751Z AUTO 16004KT M02/M06 A3023 RMK AO1 SLP195 T10171061
KSNT 120651Z AUTO 17004KT M02/M06 A3023 RMK AO1 SLP200 T10171061 401501083
KSNT 120551Z AUTO 16005KT M01/M06 A3021 RMK AO1 SLP193 T10111061 10139 21011 51008
KSNT 120451Z AUTO 18005KT 01/M06 A3021 RMK AO1 SLP195 T00061056
KSNT 120351Z AUTO 18003KT 02/M05 A3019 RMK AO1 SLP195 T00171050
KSNT 120251Z AUTO 00000KT 06/M05 A3018 RMK AO1 SLP187 T00611050 53006
KSNT 120151Z AUTO 26004KT 11/M06 A3016 RMK AO1 SLP179 T01111061
KSNT 120051Z AUTO 31005KT 11/M07 A3017 RMK AO1 SLP189 T01111072
KSNT 112351Z AUTO VRB04G14KT 13/M08 A3015 RMK AO1 SLP179 T01281078 10150 20094 53000
KSNT 112251Z AUTO VRB06G18KT 13/M08 A3015 RMK AO1 SLP177 T01281078
KSNT 112151Z AUTO VRB04KT 13/M08 A3015 RMK AO1 SLP178 T01331083